N1898L KSAN-KASE
Flight info
| Callsign | N1898L |
|---|---|
| Flight time | N/A |
| Altitude | 35000 |
| Route | ZZOOO4 MTBAL EED DICEE IBSKI SINSY LOYYD SKIER DBL |
| Aircraft | E55P/M-SBDFGHJ2RWY/LB2 |
Departure
| Time | 2026-04-22 01:14 |
|---|---|
| Airport | San Diego International Airport (KSAN) |
Arrival
| Time | N/A |
|---|---|
| Airport | Aspen-Pitkin County Airport (Sardy Field) (KASE) |
| Time | Latitude | Longitude | Altitude | Speed | Heading |
|---|---|---|---|---|---|
| 2026-04-22 00:52 | 32.73513 | -117.18867 | 21 ft | 0 kts | 197° |
| 2026-04-22 01:04 | 32.73495 | -117.18868 | 21 ft | 5 kts | 176° |
| 2026-04-22 01:05 | 32.73443 | -117.18850 | 21 ft | 9 kts | 115° |
| 2026-04-22 01:05 | 32.73416 | -117.18748 | 21 ft | 13 kts | 107° |
| 2026-04-22 01:05 | 32.73387 | -117.18632 | 21 ft | 13 kts | 106° |
| 2026-04-22 01:05 | 32.73358 | -117.18507 | 21 ft | 13 kts | 106° |
| 2026-04-22 01:06 | 32.73330 | -117.18389 | 21 ft | 11 kts | 106° |
| 2026-04-22 01:06 | 32.73304 | -117.18281 | 20 ft | 13 kts | 105° |
| 2026-04-22 01:06 | 32.73280 | -117.18183 | 20 ft | 10 kts | 106° |
| 2026-04-22 01:06 | 32.73259 | -117.18092 | 21 ft | 9 kts | 105° |
| 2026-04-22 01:07 | 32.73237 | -117.18004 | 21 ft | 9 kts | 106° |
| 2026-04-22 01:07 | 32.73214 | -117.17912 | 21 ft | 12 kts | 105° |
| 2026-04-22 01:07 | 32.73182 | -117.17778 | 22 ft | 17 kts | 106° |
| 2026-04-22 01:07 | 32.73143 | -117.17629 | 24 ft | 16 kts | 108° |
| 2026-04-22 01:08 | 32.73098 | -117.17557 | 25 ft | 0 kts | 143° |
| 2026-04-22 01:13 | 32.73076 | -117.17541 | 24 ft | 14 kts | 154° |
| 2026-04-22 01:13 | 32.73032 | -117.17633 | 24 ft | 19 kts | 286° |
| 2026-04-22 01:13 | 32.73077 | -117.17818 | 21 ft | 27 kts | 285° |
| 2026-04-22 01:13 | 32.73204 | -117.18327 | 18 ft | 98 kts | 285° |
| 2026-04-22 01:14 | 32.73441 | -117.19314 | 102 ft | 141 kts | 286° |
| 2026-04-22 01:14 | 32.73807 | -117.20664 | 373 ft | 181 kts | 286° |
| 2026-04-22 01:14 | 32.74278 | -117.22302 | 875 ft | 211 kts | 287° |
| 2026-04-22 01:14 | 32.74688 | -117.24182 | 1262 ft | 245 kts | 285° |
| 2026-04-22 01:15 | 32.75138 | -117.26151 | 2694 ft | 232 kts | 286° |
| 2026-04-22 01:15 | 32.75576 | -117.28017 | 3950 ft | 227 kts | 286° |
| 2026-04-22 01:15 | 32.76027 | -117.29903 | 4988 ft | 231 kts | 285° |
| 2026-04-22 01:15 | 32.76463 | -117.31844 | 6018 ft | 234 kts | 278° |
| 2026-04-22 01:16 | 32.76156 | -117.33738 | 6983 ft | 236 kts | 240° |
| 2026-04-22 01:16 | 32.74802 | -117.34995 | 8003 ft | 244 kts | 202° |
| 2026-04-22 01:16 | 32.72922 | -117.34951 | 8970 ft | 259 kts | 169° |
| 2026-04-22 01:16 | 32.71124 | -117.34215 | 9887 ft | 264 kts | 162° |
| 2026-04-22 01:17 | 32.69492 | -117.32754 | 10727 ft | 279 kts | 142° |
| 2026-04-22 01:17 | 32.67951 | -117.30878 | 11568 ft | 285 kts | 139° |
| 2026-04-22 01:17 | 32.66425 | -117.28900 | 12336 ft | 292 kts | 139° |
| 2026-04-22 01:17 | 32.64872 | -117.26867 | 13100 ft | 296 kts | 139° |
| 2026-04-22 01:18 | 32.63411 | -117.24789 | 13835 ft | 307 kts | 126° |
| 2026-04-22 01:18 | 32.62792 | -117.22006 | 14583 ft | 322 kts | 95° |
| 2026-04-22 01:18 | 32.62618 | -117.19012 | 15351 ft | 324 kts | 99° |
| 2026-04-22 01:18 | 32.62353 | -117.15955 | 16016 ft | 331 kts | 100° |
| 2026-04-22 01:19 | 32.62074 | -117.12888 | 16741 ft | 334 kts | 100° |
| 2026-04-22 01:19 | 32.62060 | -117.09731 | 17387 ft | 344 kts | 78° |
| 2026-04-22 01:19 | 32.63005 | -117.06880 | 18097 ft | 345 kts | 68° |
| 2026-04-22 01:19 | 32.63903 | -117.04176 | 18677 ft | 350 kts | 69° |
| 2026-04-22 01:20 | 32.64787 | -117.01494 | 19203 ft | 355 kts | 69° |
| 2026-04-22 01:20 | 32.65717 | -116.98646 | 19770 ft | 360 kts | 69° |
| 2026-04-22 01:20 | 32.66553 | -116.95767 | 20314 ft | 364 kts | 82° |
| 2026-04-22 01:20 | 32.66703 | -116.92628 | 20853 ft | 366 kts | 92° |
| 2026-04-22 01:21 | 32.66782 | -116.89264 | 21432 ft | 370 kts | 91° |
| 2026-04-22 01:21 | 32.66852 | -116.86159 | 21976 ft | 373 kts | 91° |
| 2026-04-22 01:21 | 32.66930 | -116.83044 | 22454 ft | 378 kts | 92° |
| 2026-04-22 01:21 | 32.67012 | -116.79724 | 22968 ft | 383 kts | 89° |
| 2026-04-22 01:22 | 32.67835 | -116.76355 | 23487 ft | 388 kts | 58° |
| 2026-04-22 01:22 | 32.69732 | -116.73701 | 24056 ft | 380 kts | 32° |
| 2026-04-22 01:22 | 32.72160 | -116.72301 | 24487 ft | 364 kts | 5° |
| 2026-04-22 01:22 | 32.74919 | -116.71467 | 25113 ft | 371 kts | 15° |
| 2026-04-22 01:23 | 32.77644 | -116.70170 | 25570 ft | 378 kts | 15° |
| 2026-04-22 01:23 | 32.80408 | -116.68822 | 25978 ft | 384 kts | 15° |
| 2026-04-22 01:23 | 32.83078 | -116.67509 | 26489 ft | 386 kts | 15° |
| 2026-04-22 01:23 | 32.85519 | -116.66313 | 26898 ft | 389 kts | 15° |
| 2026-04-22 01:24 | 32.87980 | -116.65105 | 27313 ft | 392 kts | 15° |
| 2026-04-22 01:24 | 32.90792 | -116.63725 | 27754 ft | 396 kts | 16° |
| 2026-04-22 01:24 | 32.93714 | -116.62286 | 28256 ft | 398 kts | 15° |
| 2026-04-22 01:24 | 32.96634 | -116.60850 | 28695 ft | 401 kts | 15° |
| 2026-04-22 01:25 | 32.99390 | -116.59496 | 29075 ft | 406 kts | 15° |
| 2026-04-22 01:25 | 33.02096 | -116.58136 | 29526 ft | 408 kts | 17° |
| 2026-04-22 01:25 | 33.04834 | -116.56705 | 30055 ft | 407 kts | 17° |
| 2026-04-22 01:25 | 33.07663 | -116.55222 | 30663 ft | 404 kts | 17° |
| 2026-04-22 01:26 | 33.10437 | -116.53770 | 31190 ft | 403 kts | 16° |
| 2026-04-22 01:26 | 33.13178 | -116.52338 | 31664 ft | 402 kts | 17° |
| 2026-04-22 01:26 | 33.15853 | -116.50938 | 32121 ft | 402 kts | 16° |
| 2026-04-22 01:26 | 33.18550 | -116.49527 | 32540 ft | 403 kts | 16° |
| 2026-04-22 01:27 | 33.21167 | -116.48157 | 33014 ft | 402 kts | 16° |
| 2026-04-22 01:27 | 33.23806 | -116.46769 | 33526 ft | 399 kts | 15° |
| 2026-04-22 01:27 | 33.26382 | -116.45418 | 34015 ft | 397 kts | 15° |
| 2026-04-22 01:27 | 33.28961 | -116.44072 | 34409 ft | 398 kts | 16° |
| 2026-04-22 01:28 | 33.31518 | -116.42723 | 34820 ft | 399 kts | 16° |
| 2026-04-22 01:28 | 33.34154 | -116.41340 | 35027 ft | 406 kts | 15° |
| 2026-04-22 01:28 | 33.39570 | -116.38256 | 35082 ft | 438 kts | 32° |
| 2026-04-22 01:29 | 33.41711 | -116.35525 | 35118 ft | 459 kts | 53° |
| 2026-04-22 01:29 | 33.43575 | -116.32306 | 35026 ft | 471 kts | 53° |
| 2026-04-22 01:29 | 33.47455 | -116.25776 | 35019 ft | 488 kts | 53° |
| 2026-04-22 01:30 | 33.51580 | -116.18880 | 34995 ft | 505 kts | 52° |
| 2026-04-22 01:30 | 33.55782 | -116.11852 | 34963 ft | 509 kts | 53° |
| 2026-04-22 01:31 | 33.59895 | -116.04960 | 34955 ft | 508 kts | 52° |
| 2026-04-22 01:31 | 33.64530 | -115.98659 | 34981 ft | 502 kts | 45° |
| 2026-04-22 01:32 | 33.69236 | -115.92449 | 34989 ft | 503 kts | 45° |
| 2026-04-22 01:32 | 33.73947 | -115.86219 | 35000 ft | 508 kts | 45° |
| 2026-04-22 01:33 | 33.78709 | -115.79898 | 35022 ft | 509 kts | 45° |
| 2026-04-22 01:33 | 33.83449 | -115.73595 | 35026 ft | 505 kts | 45° |
| 2026-04-22 01:34 | 33.88111 | -115.67390 | 35009 ft | 502 kts | 46° |
| 2026-04-22 01:34 | 33.92795 | -115.61139 | 34989 ft | 506 kts | 46° |
| 2026-04-22 01:35 | 33.97535 | -115.54806 | 34972 ft | 509 kts | 46° |
| 2026-04-22 01:35 | 34.02282 | -115.48450 | 34961 ft | 507 kts | 46° |
| 2026-04-22 01:36 | 34.06981 | -115.42142 | 34949 ft | 504 kts | 46° |
| 2026-04-22 01:36 | 34.11680 | -115.35827 | 34928 ft | 503 kts | 46° |
| 2026-04-22 01:37 | 34.16425 | -115.29436 | 34913 ft | 504 kts | 47° |
| 2026-04-22 01:37 | 34.21166 | -115.23051 | 34903 ft | 505 kts | 47° |
| 2026-04-22 01:38 | 34.25879 | -115.16674 | 34909 ft | 505 kts | 47° |
| 2026-04-22 01:38 | 34.30596 | -115.10291 | 34912 ft | 504 kts | 47° |
| 2026-04-22 01:39 | 34.35285 | -115.03936 | 34906 ft | 503 kts | 47° |
| 2026-04-22 01:39 | 34.39945 | -114.97597 | 34914 ft | 504 kts | 47° |
| 2026-04-22 01:40 | 34.44624 | -114.91236 | 34920 ft | 504 kts | 47° |
| 2026-04-22 01:40 | 34.49283 | -114.84885 | 34926 ft | 503 kts | 47° |
| 2026-04-22 01:41 | 34.53940 | -114.78519 | 34925 ft | 501 kts | 47° |
| 2026-04-22 01:41 | 34.58574 | -114.72181 | 34938 ft | 501 kts | 47° |
| 2026-04-22 01:42 | 34.63273 | -114.65735 | 34920 ft | 504 kts | 47° |
| 2026-04-22 01:42 | 34.67945 | -114.59320 | 34910 ft | 504 kts | 47° |
| 2026-04-22 01:43 | 34.72555 | -114.52975 | 34900 ft | 502 kts | 47° |
| 2026-04-22 01:43 | 34.77152 | -114.46576 | 34901 ft | 501 kts | 51° |
| 2026-04-22 01:44 | 34.79460 | -114.43418 | 34865 ft | 499 kts | 39° |
| 2026-04-22 01:44 | 34.81956 | -114.40548 | 34913 ft | 500 kts | 43° |
| 2026-04-22 01:44 | 34.86342 | -114.35072 | 34945 ft | 503 kts | 44° |